Time;durP1;ratioP1;P1;durP2;ratioP2;P2;SDS_P1;SDS_P2;PMS_P1;PMS_P2;Temp;Humidity;BMP_temperature;BMP_pressure;BME280_temperature;BME280_humidity;BME280_pressure;Samples;Min_cycle;Max_cycle;Signal;HPM_P1;HPM_P2
2024/02/18 00:01:44;;;;;;;;;;;;;;;16.79;40.48;101995.88;4956953;29;1157;-46
2024/02/18 00:04:11;;;;;;;;;;;;;;;17.04;39.44;101995.41;4957335;29;1073;-51
2024/02/18 00:06:37;;;;;;;;;;;;;;;16.10;41.35;101992.31;4960777;29;1081;-47
2024/02/18 00:09:03;;;;;;;;;;;;;;;15.73;42.56;101994.16;4960664;29;1969;-51
2024/02/18 00:11:29;;;;;;;;;;;;;;;15.42;43.33;101984.09;4961162;29;1196;-47
2024/02/18 00:13:54;;;;;;;;;;;;;;;15.54;42.89;101985.28;4959013;29;1053;-49
2024/02/18 00:16:20;;;;;;;;;;;;;;;16.95;40.08;101986.13;4960733;29;1041;-49
2024/02/18 00:18:46;;;;;;;;;;;;;;;16.70;40.35;101989.28;4960364;29;1148;-49
2024/02/18 00:21:15;;;;;;;;;;;;;;;15.95;41.76;101990.41;4960794;29;1197;-48
2024/02/18 00:23:41;;;;;;;;;;;;;;;15.57;43.11;101986.94;4960586;29;1173;-45
2024/02/18 00:26:06;;;;;;;;;;;;;;;15.32;43.16;101989.91;4955208;29;1046;-48
2024/02/18 00:28:32;;;;;;;;;;;;;;;15.89;42.25;101980.97;4940567;29;1898;-50
2024/02/18 00:30:57;;;;;;;;;;;;;;;17.15;39.71;101978.88;4943405;29;1301;-51
2024/02/18 00:33:23;;;;;;;;;;;;;;;16.63;40.66;101978.13;4960435;29;1128;-49
2024/02/18 00:35:49;;;;;;;;;;;;;;;15.97;41.78;101980.56;4960390;29;1382;-47
2024/02/18 00:38:14;;;;;;;;;;;;;;;15.62;42.56;101971.66;4957842;29;1078;-52
2024/02/18 00:40:40;;;;;;;;;;;;;;;15.37;43.29;101966.66;4943157;29;1118;-47
2024/02/18 00:43:06;;;;;;;;;;;;;;;16.10;41.97;101968.41;4960341;29;1025;-50
2024/02/18 00:45:31;;;;;;;;;;;;;;;17.29;39.51;101963.94;4960537;29;1138;-50
2024/02/18 00:47:57;;;;;;;;;;;;;;;16.40;40.99;101959.78;4960120;29;1930;-48
2024/02/18 00:50:23;;;;;;;;;;;;;;;15.93;42.11;101961.31;4953991;29;1185;-49
2024/02/18 00:52:48;;;;;;;;;;;;;;;15.54;42.78;101966.72;4956356;29;1169;-52
2024/02/18 00:55:15;;;;;;;;;;;;;;;15.33;43.50;101965.13;4960023;29;1046;-49
2024/02/18 00:57:40;;;;;;;;;;;;;;;15.86;42.29;101957.25;4960269;29;1029;-50
2024/02/18 01:00:10;;;;;;;;;;;;;;;17.10;39.63;101957.88;4960172;29;1125;-48
2024/02/18 01:02:35;;;;;;;;;;;;;;;16.57;40.58;101959.81;4956432;29;1146;-51
2024/02/18 01:05:01;;;;;;;;;;;;;;;15.91;41.73;101957.88;4960151;29;1101;-50
2024/02/18 01:07:26;;;;;;;;;;;;;;;15.60;42.76;101967.38;4959891;29;1906;-52
2024/02/18 01:09:52;;;;;;;;;;;;;;;15.32;43.60;101958.94;4960238;29;1157;-53
2024/02/18 01:12:18;;;;;;;;;;;;;;;15.23;43.81;101962.88;4960013;29;1193;-50
2024/02/18 01:14:44;;;;;;;;;;;;;;;16.65;40.75;101945.19;4952220;29;1120;-51
2024/02/18 01:17:09;;;;;;;;;;;;;;;17.02;39.68;101954.75;4956737;29;1054;-47
2024/02/18 01:19:36;;;;;;;;;;;;;;;16.09;41.38;101947.25;4959684;29;1058;-48
2024/02/18 01:22:01;;;;;;;;;;;;;;;15.64;42.79;101947.69;4959605;29;1104;-48
2024/02/18 01:24:27;;;;;;;;;;;;;;;15.37;43.32;101946.31;4959665;29;1050;-52
2024/02/18 01:26:53;;;;;;;;;;;;;;;15.42;43.35;101956.72;4954624;29;1910;-50
2024/02/18 01:29:18;;;;;;;;;;;;;;;16.85;40.24;101945.91;4959439;29;1073;-49
2024/02/18 01:31:44;;;;;;;;;;;;;;;16.80;39.96;101947.94;4959190;29;1093;-50
2024/02/18 01:34:09;;;;;;;;;;;;;;;16.00;41.80;101941.50;4959450;29;1130;-49
2024/02/18 01:36:35;;;;;;;;;;;;;;;15.62;42.32;101941.59;4959398;29;1013;-46
2024/02/18 01:39:01;;;;;;;;;;;;;;;15.36;42.97;101946.41;4950816;29;1042;-51
2024/02/18 01:41:27;;;;;;;;;;;;;;;16.00;41.79;101940.63;4955893;29;1058;-48
2024/02/18 01:43:52;;;;;;;;;;;;;;;17.19;39.56;101943.22;4959097;29;1069;-47
2024/02/18 01:46:18;;;;;;;;;;;;;;;16.57;40.53;101943.88;4959158;29;1073;-48
2024/02/18 01:48:43;;;;;;;;;;;;;;;15.87;42.01;101943.03;4958345;29;1983;-52
2024/02/18 01:51:09;;;;;;;;;;;;;;;15.54;42.57;101949.94;4952308;29;1136;-48
2024/02/18 01:53:35;;;;;;;;;;;;;;;15.34;42.99;101943.84;4958899;29;1435;-50
2024/02/18 01:56:00;;;;;;;;;;;;;;;15.68;42.88;101949.28;4959179;29;1078;-50
2024/02/18 01:58:26;;;;;;;;;;;;;;;17.02;39.74;101944.97;4958828;28;1050;-50
2024/02/18 02:00:51;;;;;;;;;;;;;;;17.05;39.57;101941.28;4959200;29;1108;-49
2024/02/18 02:03:17;;;;;;;;;;;;;;;16.14;41.17;101946.09;4958088;29;862;-51
2024/02/18 02:05:42;;;;;;;;;;;;;;;15.71;42.49;101953.56;4958904;29;1050;-48
2024/02/18 02:08:08;;;;;;;;;;;;;;;15.46;43.12;101958.28;4958968;29;1902;-50
2024/02/18 02:10:34;;;;;;;;;;;;;;;15.21;43.47;101954.19;4959012;29;1154;-46
2024/02/18 02:12:59;;;;;;;;;;;;;;;16.20;41.66;101952.88;4958532;29;1026;-50
2024/02/18 02:15:25;;;;;;;;;;;;;;;17.21;39.29;101961.72;4950919;29;1058;-53
2024/02/18 02:17:51;;;;;;;;;;;;;;;16.31;41.08;101951.47;4958939;29;1074;-48
2024/02/18 02:20:16;;;;;;;;;;;;;;;15.78;42.23;101947.84;4958879;29;1137;-49
2024/02/18 02:22:42;;;;;;;;;;;;;;;15.42;43.15;101956.72;4958789;29;1061;-49
2024/02/18 02:25:09;;;;;;;;;;;;;;;15.24;43.30;101958.47;4958544;29;1038;-49
2024/02/18 02:27:36;;;;;;;;;;;;;;;16.69;40.62;101955.66;4941228;29;2048;-48
2024/02/18 02:30:04;;;;;;;;;;;;;;;17.06;39.45;101947.47;4958519;29;1154;-51
2024/02/18 02:32:31;;;;;;;;;;;;;;;16.13;41.22;101941.72;4941635;29;1197;-50
2024/02/18 02:34:58;;;;;;;;;;;;;;;15.67;42.47;101944.88;4958180;29;1058;-48
2024/02/18 02:37:23;;;;;;;;;;;;;;;15.46;42.90;101945.03;4958548;29;1077;-47
2024/02/18 02:39:50;;;;;;;;;;;;;;;15.29;43.23;101935.25;4958031;29;1177;-50
2024/02/18 02:42:16;;;;;;;;;;;;;;;16.63;40.44;101931.13;4958933;29;1118;-48
2024/02/18 02:44:42;;;;;;;;;;;;;;;17.21;39.17;101933.34;4958571;29;1018;-50
2024/02/18 02:47:08;;;;;;;;;;;;;;;16.19;41.41;101932.59;4958174;29;1902;-49
2024/02/18 02:49:33;;;;;;;;;;;;;;;15.77;42.25;101942.63;4956061;29;1116;-47
2024/02/18 02:51:59;;;;;;;;;;;;;;;15.49;42.69;101933.41;4947029;29;855;-52
2024/02/18 02:54:25;;;;;;;;;;;;;;;15.22;43.39;101932.03;4957353;29;1197;-52
2024/02/18 02:56:51;;;;;;;;;;;;;;;16.22;41.31;101931.56;4958415;29;1025;-51
2024/02/18 02:59:16;;;;;;;;;;;;;;;17.29;39.23;101935.56;4957688;29;1088;-51
2024/02/18 03:01:42;;;;;;;;;;;;;;;16.54;40.58;101931.66;4958616;29;1173;-51
2024/02/18 03:04:08;;;;;;;;;;;;;;;15.93;41.97;101940.06;4957857;29;1215;-49
2024/02/18 03:06:34;;;;;;;;;;;;;;;15.59;42.88;101942.63;4957502;29;1081;-50
2024/02/18 03:08:59;;;;;;;;;;;;;;;15.37;42.89;101945.47;4957864;29;1914;-51
2024/02/18 03:11:25;;;;;;;;;;;;;;;15.54;42.91;101942.88;4957955;29;1157;-52
2024/02/18 03:13:51;;;;;;;;;;;;;;;16.93;39.89;101937.53;4958437;29;1070;-49
2024/02/18 03:16:16;;;;;;;;;;;;;;;16.79;39.78;101940.94;4953930;29;980;-50
2024/02/18 03:18:45;;;;;;;;;;;;;;;15.96;41.67;101936.41;4957824;29;1081;-50
2024/02/18 03:21:10;;;;;;;;;;;;;;;15.61;42.73;101932.81;4957742;29;1132;-50
2024/02/18 03:23:36;;;;;;;;;;;;;;;15.37;43.20;101941.03;4957924;29;1161;-48
2024/02/18 03:26:02;;;;;;;;;;;;;;;15.22;43.53;101939.09;4957781;29;1092;-50
2024/02/18 03:28:27;;;;;;;;;;;;;;;16.61;40.63;101935.69;4957703;29;1985;-48
2024/02/18 03:30:53;;;;;;;;;;;;;;;17.28;39.09;101933.00;4958061;29;1053;-48
2024/02/18 03:33:18;;;;;;;;;;;;;;;16.28;41.04;101934.75;4957865;29;1096;-48
2024/02/18 03:35:44;;;;;;;;;;;;;;;15.77;41.93;101939.97;4957421;29;1112;-51
2024/02/18 03:38:10;;;;;;;;;;;;;;;15.45;43.01;101940.63;4958334;29;1141;-48
2024/02/18 03:40:36;;;;;;;;;;;;;;;15.24;43.34;101938.13;4953315;29;1108;-51
2024/02/18 03:43:04;;;;;;;;;;;;;;;16.37;40.88;101932.53;4957483;29;1073;-46
2024/02/18 03:45:30;;;;;;;;;;;;;;;17.38;38.90;101936.84;4957674;29;1062;-50
2024/02/18 03:47:55;;;;;;;;;;;;;;;16.42;40.96;101938.47;4957039;29;1887;-50
2024/02/18 03:50:21;;;;;;;;;;;;;;;15.87;41.92;101943.88;4957787;29;1022;-46
2024/02/18 03:52:47;;;;;;;;;;;;;;;15.52;42.48;101943.84;4945380;29;1220;-45
2024/02/18 03:55:13;;;;;;;;;;;;;;;15.38;43.24;101955.16;4957249;29;1125;-49
2024/02/18 03:57:38;;;;;;;;;;;;;;;15.25;43.39;101946.91;4957610;29;1232;-49
2024/02/18 04:00:08;;;;;;;;;;;;;;;16.72;40.33;101943.06;4957608;29;1085;-47
2024/02/18 04:02:34;;;;;;;;;;;;;;;16.88;39.46;101948.38;4957703;28;1140;-47
2024/02/18 04:05:00;;;;;;;;;;;;;;;15.96;41.61;101941.69;4954539;29;987;-47
2024/02/18 04:07:26;;;;;;;;;;;;;;;15.65;42.21;101946.75;4943586;29;1911;-48
2024/02/18 04:09:52;;;;;;;;;;;;;;;15.37;42.84;101945.47;4961410;29;1205;-45
2024/02/18 04:12:17;;;;;;;;;;;;;;;15.24;43.39;101942.56;4961335;29;1121;-44
2024/02/18 04:14:43;;;;;;;;;;;;;;;16.73;40.56;101941.28;4961184;29;1009;-46
2024/02/18 04:17:08;;;;;;;;;;;;;;;17.06;39.28;101934.16;4960261;29;906;-48
2024/02/18 04:19:34;;;;;;;;;;;;;;;16.07;41.45;101934.06;4960942;29;1097;-51
2024/02/18 04:21:59;;;;;;;;;;;;;;;15.71;42.31;101935.84;4960760;29;1053;-50
2024/02/18 04:24:25;;;;;;;;;;;;;;;15.43;43.15;101947.84;4961134;29;1093;-46
2024/02/18 04:26:51;;;;;;;;;;;;;;;15.70;42.75;101941.25;4960733;29;1902;-49
2024/02/18 04:29:16;;;;;;;;;;;;;;;17.02;39.74;101941.47;4953105;29;868;-49
2024/02/18 04:31:42;;;;;;;;;;;;;;;16.56;40.11;101940.41;4960200;29;1186;-47
2024/02/18 04:34:07;;;;;;;;;;;;;;;15.83;41.96;101952.09;4960743;29;1061;-49
2024/02/18 04:36:33;;;;;;;;;;;;;;;15.56;42.39;101953.41;4960311;29;1057;-49
2024/02/18 04:38:59;;;;;;;;;;;;;;;15.29;43.35;101952.00;4960327;29;1128;-45
2024/02/18 04:41:24;;;;;;;;;;;;;;;16.22;41.64;101953.66;4957159;29;963;-49
2024/02/18 04:43:50;;;;;;;;;;;;;;;17.28;39.00;101952.47;4947663;29;1007;-46
2024/02/18 04:46:16;;;;;;;;;;;;;;;16.27;40.96;101951.63;4960089;29;1029;-45
2024/02/18 04:48:41;;;;;;;;;;;;;;;15.80;41.94;101955.75;4960220;29;1979;-44
2024/02/18 04:51:08;;;;;;;;;;;;;;;15.47;42.47;101959.13;4960157;29;1213;-51
2024/02/18 04:53:33;;;;;;;;;;;;;;;15.24;43.53;101961.09;4960193;29;1186;-43
2024/02/18 04:55:59;;;;;;;;;;;;;;;16.15;41.46;101953.13;4959763;29;1105;-45
2024/02/18 04:58:25;;;;;;;;;;;;;;;17.22;39.28;101948.34;4959725;29;1122;-44
2024/02/18 05:00:50;;;;;;;;;;;;;;;16.55;40.40;101956.41;4959805;29;1027;-46
2024/02/18 05:03:16;;;;;;;;;;;;;;;15.83;42.08;101952.09;4959709;29;1153;-42
2024/02/18 05:05:41;;;;;;;;;;;;;;;15.55;42.72;101960.47;4959830;29;1051;-46
2024/02/18 05:08:07;;;;;;;;;;;;;;;15.28;43.14;101954.75;4959721;29;1918;-45
2024/02/18 05:10:32;;;;;;;;;;;;;;;16.08;42.07;101954.34;4959088;29;2475;-45
2024/02/18 05:12:58;;;;;;;;;;;;;;;17.22;39.34;101955.47;4951683;29;1137;-45
2024/02/18 05:15:24;;;;;;;;;;;;;;;16.38;41.23;101955.50;4954505;28;1170;-48
2024/02/18 05:17:49;;;;;;;;;;;;;;;17.62;38.42;101963.81;4959221;29;875;-45
2024/02/18 05:20:15;;;;;;;;;;;;;;;16.06;41.68;101963.34;4946598;29;1340;-41
2024/02/18 05:22:40;;;;;;;;;;;;;;;17.40;39.26;101968.69;4959973;29;1137;-44
2024/02/18 05:25:06;;;;;;;;;;;;;;;17.40;38.83;101971.34;4959725;29;1162;-43
2024/02/18 05:27:32;;;;;;;;;;;;;;;15.87;41.94;101970.44;4959475;29;1970;-40
2024/02/18 05:29:58;;;;;;;;;;;;;;;15.34;43.25;101985.38;4956493;29;886;-39
2024/02/18 05:32:24;;;;;;;;;;;;;;;17.29;39.73;101988.75;4959609;29;1037;-42
2024/02/18 05:34:50;;;;;;;;;;;;;;;16.07;41.92;101991.59;4959477;29;1054;-44
2024/02/18 05:37:15;;;;;;;;;;;;;;;15.47;42.92;101997.13;4959295;29;1014;-45
2024/02/18 05:39:41;;;;;;;;;;;;;;;17.47;39.51;101991.31;4959091;29;2458;-45
2024/02/18 05:42:07;;;;;;;;;;;;;;;15.98;41.81;101991.13;4948870;29;1178;-42
2024/02/18 05:44:32;;;;;;;;;;;;;;;15.32;43.44;101993.41;4957264;29;1114;-44
2024/02/18 05:46:58;;;;;;;;;;;;;;;16.59;41.49;102005.78;4948296;29;1907;-40
2024/02/18 05:49:24;;;;;;;;;;;;;;;16.47;40.88;102002.81;4957488;29;1221;-43
2024/02/18 05:51:55;;;;;;;;;;;;;;;15.51;43.15;102005.78;4959187;29;1073;-43
2024/02/18 05:54:23;;;;;;;;;;;;;;;17.67;39.06;102007.91;4954171;29;1177;-40
2024/02/18 05:56:48;;;;;;;;;;;;;;;15.99;41.99;102010.56;4959482;29;1101;-41
2024/02/18 05:59:14;;;;;;;;;;;;;;;16.67;41.39;102003.56;4958663;29;1026;-44
2024/02/18 06:01:40;;;;;;;;;;;;;;;16.94;40.11;102004.81;4959172;29;1046;-44
2024/02/18 06:04:05;;;;;;;;;;;;;;;15.70;42.89;102008.41;4945435;29;1204;-45
2024/02/18 06:06:32;;;;;;;;;;;;;;;17.71;39.11;102012.13;4948263;29;1186;-46
2024/02/18 06:08:57;;;;;;;;;;;;;;;16.30;41.53;102000.22;4958693;29;1915;-47
2024/02/18 06:11:23;;;;;;;;;;;;;;;17.38;39.75;102006.00;4958253;29;2828;-43
2024/02/18 06:13:48;;;;;;;;;;;;;;;17.62;38.82;102011.72;4958708;29;1045;-47
2024/02/18 06:16:14;;;;;;;;;;;;;;;16.23;41.58;102010.28;4957211;29;1117;-49
2024/02/18 06:18:40;;;;;;;;;;;;;;;15.79;43.09;102009.75;4953358;29;1151;-45
2024/02/18 06:21:05;;;;;;;;;;;;;;;17.89;38.62;102012.88;4958446;29;1145;-45
2024/02/18 06:23:31;;;;;;;;;;;;;;;16.20;41.78;102013.09;4958352;29;1139;-48
2024/02/18 06:25:56;;;;;;;;;;;;;;;15.63;43.11;102020.25;4958319;28;1006;-45
2024/02/18 06:28:22;;;;;;;;;;;;;;;17.64;39.47;102016.94;4957826;29;1909;-46
2024/02/18 06:30:48;;;;;;;;;;;;;;;16.43;41.54;102016.34;4958362;29;1041;-44
2024/02/18 06:33:14;;;;;;;;;;;;;;;16.21;42.40;102020.13;4958411;29;1014;-45
2024/02/18 06:35:39;;;;;;;;;;;;;;;18.15;38.10;102017.66;4957250;29;1060;-44
2024/02/18 06:38:05;;;;;;;;;;;;;;;16.37;41.73;102020.19;4958639;29;1109;-47
2024/02/18 06:40:31;;;;;;;;;;;;;;;15.74;42.68;102025.91;4957658;29;2267;-43
2024/02/18 06:42:57;;;;;;;;;;;;;;;17.32;40.09;102024.94;4945275;29;1141;-47
2024/02/18 06:45:22;;;;;;;;;;;;;;;16.25;42.00;102033.16;4958658;29;1124;-42
2024/02/18 06:47:48;;;;;;;;;;;;;;;15.69;42.84;102027.03;4958048;29;1918;-46
2024/02/18 06:50:14;;;;;;;;;;;;;;;17.62;39.26;102027.69;4939184;29;1191;-44
2024/02/18 06:52:40;;;;;;;;;;;;;;;15.99;42.14;102038.00;4957827;29;1245;-49
2024/02/18 06:55:06;;;;;;;;;;;;;;;17.01;40.89;102040.78;4958188;29;1117;-44
2024/02/18 06:57:31;;;;;;;;;;;;;;;16.90;40.54;102033.34;4957756;29;1110;-44
2024/02/18 06:59:57;;;;;;;;;;;;;;;15.88;42.61;102045.59;4957865;29;1065;-45
2024/02/18 07:02:23;;;;;;;;;;;;;;;17.84;38.98;102041.56;4957412;29;1193;-43
2024/02/18 07:04:48;;;;;;;;;;;;;;;16.29;41.82;102039.16;4954860;29;1034;-44
2024/02/18 07:07:15;;;;;;;;;;;;;;;15.77;42.74;102040.81;4952309;29;1983;-44
2024/02/18 07:09:42;;;;;;;;;;;;;;;16.96;40.99;102041.03;4953850;28;1976;-45
2024/02/18 07:12:08;;;;;;;;;;;;;;;16.69;41.11;102036.22;4941011;29;1042;-43
2024/02/18 07:14:34;;;;;;;;;;;;;;;15.82;42.51;102036.13;4958038;29;1050;-45
2024/02/18 07:16:59;;;;;;;;;;;;;;;15.66;43.56;102044.00;4946890;29;1149;-46
2024/02/18 07:19:25;;;;;;;;;;;;;;;17.97;38.71;102041.69;4958016;29;1054;-43
2024/02/18 07:21:50;;;;;;;;;;;;;;;16.40;41.46;102039.47;4944900;29;1161;-45
2024/02/18 07:24:16;;;;;;;;;;;;;;;15.75;42.76;102046.19;4957710;29;1105;-42
2024/02/18 07:26:41;;;;;;;;;;;;;;;16.39;42.29;102043.06;4957752;29;1017;-42
2024/02/18 07:29:07;;;;;;;;;;;;;;;16.92;40.34;102041.25;4953669;29;1906;-44
2024/02/18 07:31:36;;;;;;;;;;;;;;;15.87;42.81;102039.41;4952516;29;1145;-45
2024/02/18 07:34:03;;;;;;;;;;;;;;;17.87;39.04;102044.91;4957493;29;1034;-42
2024/02/18 07:36:28;;;;;;;;;;;;;;;16.51;41.49;102043.38;4957253;29;994;-46
2024/02/18 07:38:54;;;;;;;;;;;;;;;15.76;42.67;102037.31;4960324;28;1121;-45
2024/02/18 07:41:19;;;;;;;;;;;;;;;16.61;41.85;102038.44;4957845;29;2670;-46
2024/02/18 07:43:45;;;;;;;;;;;;;;;16.64;40.93;102039.13;4961204;29;1026;-44
2024/02/18 07:46:11;;;;;;;;;;;;;;;15.70;43.08;102039.41;4961102;29;1106;-42
2024/02/18 07:48:37;;;;;;;;;;;;;;;17.07;40.66;102034.25;4961196;29;1894;-49
2024/02/18 07:51:02;;;;;;;;;;;;;;;16.74;40.91;102042.16;4946925;29;1135;-42
2024/02/18 07:53:28;;;;;;;;;;;;;;;15.86;42.67;102035.06;4955719;28;1190;-42
2024/02/18 07:55:54;;;;;;;;;;;;;;;16.95;40.88;102038.44;4954832;29;1197;-43
2024/02/18 07:58:20;;;;;;;;;;;;;;;17.16;39.97;102041.75;4949984;28;1118;-46
2024/02/18 08:00:46;;;;;;;;;;;;;;;15.96;42.46;102035.47;4961185;29;1069;-48
2024/02/18 08:03:11;;;;;;;;;;;;;;;16.31;42.34;102036.44;4961008;29;1256;-46
2024/02/18 08:05:37;;;;;;;;;;;;;;;17.55;39.24;102028.13;4955807;29;1070;-47
2024/02/18 08:08:03;;;;;;;;;;;;;;;16.10;42.43;102029.47;4961051;29;1902;-47
2024/02/18 08:10:28;;;;;;;;;;;;;;;15.72;42.61;102038.38;4952141;29;2513;-41
2024/02/18 08:12:54;;;;;;;;;;;;;;;17.58;39.62;102033.28;4960740;29;1509;-41
2024/02/18 08:15:19;;;;;;;;;;;;;;;16.54;41.45;102037.91;4960486;29;1203;-45
2024/02/18 08:17:45;;;;;;;;;;;;;;;15.90;42.91;102028.66;4960300;29;1136;-43
2024/02/18 08:20:11;;;;;;;;;;;;;;;17.88;38.91;102032.47;4960779;29;1132;-43
2024/02/18 08:22:36;;;;;;;;;;;;;;;16.26;41.83;102031.38;4960897;29;1010;-41
2024/02/18 08:25:02;;;;;;;;;;;;;;;16.01;42.68;102032.59;4960337;29;1326;-41
2024/02/18 08:27:28;;;;;;;;;;;;;;;17.37;39.66;102028.22;4960501;29;1906;-47
2024/02/18 08:29:53;;;;;;;;;;;;;;;16.10;42.28;102034.78;4959367;29;1460;-45
2024/02/18 08:32:19;;;;;;;;;;;;;;;16.88;41.07;102032.59;4960767;29;1255;-45
2024/02/18 08:34:44;;;;;;;;;;;;;;;16.64;41.44;102033.81;4960558;29;1536;-42
2024/02/18 08:37:10;;;;;;;;;;;;;;;15.81;42.71;102034.41;4960313;29;1369;-47
2024/02/18 08:39:36;;;;;;;;;;;;;;;16.70;41.45;102032.63;4960250;29;2491;-44
2024/02/18 08:42:01;;;;;;;;;;;;;;;16.77;40.82;102030.50;4954505;29;1429;-43
2024/02/18 08:44:27;;;;;;;;;;;;;;;15.82;42.64;102030.81;4960783;29;1422;-46
2024/02/18 08:46:52;;;;;;;;;;;;;;;17.38;40.08;102027.28;4959838;29;1370;-48
2024/02/18 08:49:18;;;;;;;;;;;;;;;16.29;41.73;102033.84;4958985;28;1907;-45
2024/02/18 08:51:44;;;;;;;;;;;;;;;16.44;41.97;102028.69;4960069;28;1034;-46
2024/02/18 08:54:09;;;;;;;;;;;;;;;17.27;39.86;102029.69;4953719;29;1440;-47
2024/02/18 08:56:35;;;;;;;;;;;;;;;16.00;42.49;102037.03;4959866;29;1342;-41
2024/02/18 08:59:01;;;;;;;;;;;;;;;15.71;42.89;102034.00;4959646;29;1314;-43
2024/02/18 09:01:26;;;;;;;;;;;;;;;17.95;38.84;102028.47;4959359;29;1437;-42
2024/02/18 09:03:52;;;;;;;;;;;;;;;16.46;41.75;102026.81;4959402;29;1468;-44
2024/02/18 09:06:17;;;;;;;;;;;;;;;15.82;43.06;102030.81;4959456;29;1401;-42
2024/02/18 09:08:43;;;;;;;;;;;;;;;17.67;39.07;102015.91;4959494;29;1983;-49
2024/02/18 09:11:09;;;;;;;;;;;;;;;16.10;42.18;102021.50;4959491;29;2647;-42
2024/02/18 09:13:34;;;;;;;;;;;;;;;15.79;42.98;102025.66;4959942;29;1198;-41
2024/02/18 09:16:00;;;;;;;;;;;;;;;17.16;40.77;102025.81;4959637;29;1191;-46
2024/02/18 09:18:26;;;;;;;;;;;;;;;16.73;41.04;102023.66;4952719;29;971;-46
2024/02/18 09:20:51;;;;;;;;;;;;;;;15.95;42.83;102019.63;4958852;29;1148;-44
2024/02/18 09:23:17;;;;;;;;;;;;;;;18.17;38.55;102024.59;4960199;28;1108;-46
2024/02/18 09:25:43;;;;;;;;;;;;;;;16.44;41.83;102016.28;4959798;29;1049;-43
2024/02/18 09:28:09;;;;;;;;;;;;;;;16.00;42.27;102010.50;4959102;29;1976;-44
2024/02/18 09:30:35;;;;;;;;;;;;;;;15.66;43.07;102012.16;4959057;29;1173;-42
2024/02/18 09:33:01;;;;;;;;;;;;;;;17.65;39.62;102004.50;4959208;29;1128;-49
2024/02/18 09:35:27;;;;;;;;;;;;;;;16.30;41.86;102011.66;4959612;29;1109;-45
2024/02/18 09:37:52;;;;;;;;;;;;;;;16.02;43.17;102005.97;4959526;29;1155;-47
2024/02/18 09:40:18;;;;;;;;;;;;;;;17.16;40.07;101999.22;4958760;29;2506;-44
2024/02/18 09:42:44;;;;;;;;;;;;;;;15.99;42.38;101998.19;4950841;29;1013;-45
2024/02/18 09:45:14;;;;;;;;;;;;;;;16.54;42.00;101998.06;4941850;29;1054;-45
2024/02/18 09:47:40;;;;;;;;;;;;;;;17.04;40.68;101992.75;4958630;29;1906;-49
2024/02/18 09:50:09;;;;;;;;;;;;;;;16.00;42.58;101994.56;4948666;29;1108;-43
2024/02/18 09:52:37;;;;;;;;;;;;;;;16.34;42.40;101989.34;4959045;29;1194;-44
2024/02/18 09:55:03;;;;;;;;;;;;;;;16.85;40.78;101987.59;4941758;29;888;-43
2024/02/18 09:57:28;;;;;;;;;;;;;;;16.08;42.89;101982.72;4941860;29;1117;-43
2024/02/18 09:59:54;;;;;;;;;;;;;;;18.29;38.22;101979.50;4959086;29;1057;-42
2024/02/18 10:02:19;;;;;;;;;;;;;;;16.62;41.04;101982.56;4958417;28;1160;-46
2024/02/18 10:04:46;;;;;;;;;;;;;;;15.97;42.55;101986.75;4958900;29;1314;-43
2024/02/18 10:07:12;;;;;;;;;;;;;;;15.68;42.99;101986.41;4954258;29;1906;-44
2024/02/18 10:09:38;;;;;;;;;;;;;;;17.53;40.08;101984.78;4933142;29;1991;-47
2024/02/18 10:12:04;;;;;;;;;;;;;;;16.13;42.62;101986.84;4958805;28;1096;-50
2024/02/18 10:14:31;;;;;;;;;;;;;;;17.30;40.54;101978.97;4948465;29;1086;-44
2024/02/18 10:16:57;;;;;;;;;;;;;;;17.52;39.33;101981.25;4956816;29;1007;-43
2024/02/18 10:19:26;;;;;;;;;;;;;;;16.23;42.07;101973.09;4957909;29;898;-42
2024/02/18 10:21:51;;;;;;;;;;;;;;;15.83;43.03;101968.84;4956568;29;1115;-42
2024/02/18 10:24:23;;;;;;;;;;;;;;;15.66;43.15;101978.50;4941321;29;1263;-45
2024/02/18 10:26:49;;;;;;;;;;;;;;;17.53;40.01;101963.50;4958304;29;1116;-44
2024/02/18 10:29:15;;;;;;;;;;;;;;;16.88;40.75;101960.84;4958600;29;1902;-42
2024/02/18 10:31:41;;;;;;;;;;;;;;;16.00;43.00;101954.75;4954909;29;1137;-42
2024/02/18 10:34:06;;;;;;;;;;;;;;;16.92;41.47;101957.06;4958441;29;1038;-47
2024/02/18 10:36:32;;;;;;;;;;;;;;;16.62;41.14;101953.34;4957730;29;1140;-47
2024/02/18 10:39:00;;;;;;;;;;;;;;;15.86;43.04;101952.81;4956602;29;1061;-42
2024/02/18 10:41:35;;;;;;;;;;;;;;;17.76;39.28;101954.19;4952954;29;2724;-43
2024/02/18 10:44:01;;;;;;;;;;;;;;;16.20;42.15;101954.69;4950687;29;936;-44
2024/02/18 10:46:26;;;;;;;;;;;;;;;17.57;39.96;101947.25;4956932;29;1121;-44
2024/02/18 10:48:53;;;;;;;;;;;;;;;17.07;40.50;101951.81;4958260;29;1911;-45
2024/02/18 10:51:22;;;;;;;;;;;;;;;16.08;42.65;101946.41;4954197;29;1179;-44
2024/02/18 10:53:49;;;;;;;;;;;;;;;15.73;43.47;101943.75;4932657;29;1139;-44
2024/02/18 10:56:18;;;;;;;;;;;;;;;17.12;41.03;101944.47;4954482;29;1165;-46
2024/02/18 10:58:49;;;;;;;;;;;;;;;16.69;41.47;101934.41;4941106;29;1512;-47
2024/02/18 11:01:15;;;;;;;;;;;;;;;15.91;42.71;101934.81;4958030;29;1018;-44
2024/02/18 11:03:41;;;;;;;;;;;;;;;17.56;40.03;101944.69;4938585;29;1045;-45
2024/02/18 11:06:06;;;;;;;;;;;;;;;16.35;42.01;101937.94;4951193;29;1346;-48
2024/02/18 11:08:33;;;;;;;;;;;;;;;15.81;43.34;101938.91;4941035;29;1902;-47
2024/02/18 11:10:58;;;;;;;;;;;;;;;17.08;41.09;101935.78;4957639;29;2397;-44
2024/02/18 11:13:25;;;;;;;;;;;;;;;16.35;42.13;101937.94;4957302;29;1130;-42
2024/02/18 11:15:51;;;;;;;;;;;;;;;16.45;42.49;101934.81;4958249;29;1026;-45
2024/02/18 11:18:16;;;;;;;;;;;;;;;17.88;38.92;101936.63;4957806;29;1058;-48
2024/02/18 11:20:42;;;;;;;;;;;;;;;16.38;41.88;101937.75;4957277;29;1152;-44
2024/02/18 11:23:08;;;;;;;;;;;;;;;15.79;43.07;101930.16;4957974;29;1413;-43
2024/02/18 11:25:33;;;;;;;;;;;;;;;15.59;43.27;101923.19;4958174;29;1089;-40
2024/02/18 11:27:59;;;;;;;;;;;;;;;15.49;43.51;101920.13;4957986;29;1914;-45
2024/02/18 11:30:24;;;;;;;;;;;;;;;16.93;41.46;101921.59;4941105;29;1022;-44
2024/02/18 11:32:50;;;;;;;;;;;;;;;16.55;41.81;101913.91;4944405;29;1367;-45
2024/02/18 11:35:18;;;;;;;;;;;;;;;15.67;43.33;101916.56;4958082;29;1125;-44
2024/02/18 11:37:44;;;;;;;;;;;;;;;17.77;39.71;101918.63;4957770;29;1081;-47
2024/02/18 11:40:10;;;;;;;;;;;;;;;16.28;42.43;101907.34;4957823;29;2473;-43
2024/02/18 11:42:39;;;;;;;;;;;;;;;16.56;42.36;101907.66;4957962;29;1021;-43
2024/02/18 11:45:05;;;;;;;;;;;;;;;17.30;40.04;101904.50;4957499;29;1062;-46
2024/02/18 11:47:31;;;;;;;;;;;;;;;16.19;42.69;101905.16;4957781;29;1899;-45
2024/02/18 11:49:57;;;;;;;;;;;;;;;16.61;42.24;101905.59;4952677;29;1017;-46
2024/02/18 11:52:22;;;;;;;;;;;;;;;16.98;40.76;101905.38;4933600;29;1058;-45
2024/02/18 11:54:48;;;;;;;;;;;;;;;16.12;42.49;101908.16;4952771;29;1244;-45
2024/02/18 11:57:13;;;;;;;;;;;;;;;17.02;41.43;101906.91;4957834;29;1057;-47
2024/02/18 11:59:39;;;;;;;;;;;;;;;17.31;40.04;101908.88;4957720;29;1104;-45
2024/02/18 12:02:05;;;;;;;;;;;;;;;16.17;42.78;101905.25;4957648;29;1100;-44
2024/02/18 12:04:30;;;;;;;;;;;;;;;15.79;43.16;101906.28;4957779;29;1228;-45
2024/02/18 12:06:59;;;;;;;;;;;;;;;17.90;39.59;101905.44;4945980;29;1212;-43
2024/02/18 12:09:26;;;;;;;;;;;;;;;16.76;41.37;101902.13;4944304;29;2394;-44
2024/02/18 12:11:52;;;;;;;;;;;;;;;16.04;42.80;101897.06;4957803;29;1061;-45
2024/02/18 12:14:20;;;;;;;;;;;;;;;15.79;43.33;101893.88;4940574;29;1081;-43
2024/02/18 12:16:46;;;;;;;;;;;;;;;17.99;39.31;101893.38;4957244;29;1461;-45
2024/02/18 12:19:12;;;;;;;;;;;;;;;16.47;41.86;101893.94;4940257;29;1134;-42
2024/02/18 12:21:38;;;;;;;;;;;;;;;15.86;43.18;101886.47;4940610;29;1058;-44
2024/02/18 12:24:06;;;;;;;;;;;;;;;17.72;39.76;101886.97;4955883;28;1010;-46
2024/02/18 12:26:31;;;;;;;;;;;;;;;16.41;42.14;101886.31;4951647;29;1015;-44
2024/02/18 12:28:58;;;;;;;;;;;;;;;17.23;40.90;101886.22;4960800;29;1919;-44
2024/02/18 12:31:24;;;;;;;;;;;;;;;17.45;39.70;101884.97;4960495;29;1037;-44
2024/02/18 12:33:50;;;;;;;;;;;;;;;16.36;42.42;101888.34;4943844;29;1181;-45
2024/02/18 12:36:15;;;;;;;;;;;;;;;17.63;40.14;101890.19;4960645;29;1045;-46
2024/02/18 12:38:41;;;;;;;;;;;;;;;16.96;40.91;101884.19;4960636;29;1589;-43
2024/02/18 12:41:06;;;;;;;;;;;;;;;16.13;42.61;101890.44;4960228;29;2618;-43